Relevés horaires Chievres (Belgique)


Relevés horaires à Chievres - Dimanche 30 Août 2026
Heure UTC1 Température [°C] Vent [km/h] Hum. [%] Pres.4 [hPa] Visi. [Km] Nébu. [octa] Préc.5 [mm] Cond.
2m. Res. Ros. Dir.2 Vit. Moy. Raf.3
23:00 17.3 17.3 15.0 SSO 7.4 -- 14.8 86 1011(-0.1/3h) 7 -- -- Il y a de la pluie modérée et intermittente à la station au moment de l'observation
22:00 17.0 17.0 14.7 S 5.6 -- 7.4 86 1010.2(-0.5/3h) >70 -- -- --
21:00 17.2 17.2 15.0 S 5.6 -- 9.3 87 1010.3(-0.7/3h) 16 -- -- NA
20:00 18.2 18.2 15.4 S 5.6 -- 9.3 84 1010.7(-0.5/3h) >70 -- -- NA
19:00 19.1 19.1 15.2 S 5.6 -- 9.3 78 1010.7(-0.9/3h) >70 -- -- --
18:00 19.6 19.6 15.5 S 5.6 -- 18.5 77 1011.1(-0.9/3h) >70 -- trace/12h
NA
17:00 19.6 19.6 15.5 S 7.4 -- 13.0 77 1011.3(-1.2/3h) 70 -- -- Ciel clair
16:00 20.0 20.0 15.8 SSO 11.1 -- 14.8 77 1011.7(-1.2/3h) >70 -- -- NA
15:00 21.8 21.8 14.6 SSO 7.4 -- 18.5 64 1012(-0.9/3h) 70 -- -- --
14:00 21.3 21.3 14.5 SSO 9.3 -- 14.8 65 1012.5(-0.1/3h) >70 -- -- --
13:00 20.8 20.8 14.0 SO 9.3 -- 18.5 65 1013(0.1/3h) >70 -- -- --
12:00 20.6 20.6 14.2 SO 9.3 -- 22.2 67 1012.8(0.2/3h) >70 -- -- --
11:00 21.2 21.2 14.9 SO 11.1 -- 16.7 67 1012.7(0.4/3h) >70 -- -- --
10:00 20.1 20.1 14.0 OSO 13.0 -- 20.4 68 1012.7(1.0/3h) >70 -- -- --
09:00 19.8 19.8 14.8 OSO 11.1 -- 22.2 73 1012.7(1.5/3h) >70 -- -- --
08:00 18.5 18.5 14.7 SO 13.0 -- 18.5 79 1012.2(1.5/3h) >70 -- -- --
07:00 17.3 17.2 14.1 SO 11.1 -- 18.5 81 1011.8(1.6/3h) >70 -- -- --
06:00 16.8 16.6 13.8 SO 11.1 -- 22.2 82 1011.2(1.0/3h) 70 -- 3/12h
Ciel clair
05:00 16.7 16.3 13.8 SO 13.0 -- 18.5 83 1010.7(0.7/3h) 70 -- -- Ciel clair
04:00 17.0 16.7 13.7 SO 13.0 -- 22.2 81 1010.2(0.7/3h) >70 -- -- --
03:00 16.7 16.3 13.7 SSO 13.0 -- 22.2 82 1010.1(0.8/3h) >70 -- -- --
02:00 16.9 16.6 13.7 SO 13.0 -- 22.2 81 1010(1.0/3h) >70 -- -- --
01:00 16.9 16.6 13.7 SO 13.0 -- 20.4 81 1009.5(0.7/3h) >70 -- -- --
00:00 17.4 17.2 13.9 SO 13.0 -- 25.9 80 1009.2(0.9/3h) 70 -- 3/6h
Ciel clair

1 Coordinated Universal Time. Actuellement il est 02:00 locale et 00:00 UTC.

2 Le vent souffle depuis la direction indiquée vers la direction oposée.

3 Les rafales max. sont disponible 40 min après l'heure du relevé.

4 Pour les stations d'altitude (plus de 600m) le géopotentiel du niveau le plus proche de la pression obligatoire est indiqué.

5 Les stations disposant d'un diffuseur peuvent indiquer "trace". Cela signifie que des précipitations ont touchés le sol mais que la quantité est inférieure à 0.1 mm.

Récapitulatif de la journée
Température [°C] Vent [km/h] Ensoleillement4 [h] Precipitations totale5 [mm] Pression [Hpa]
Min1 Max.2 Moy.3 Max. Min Max.
16.6 22.0 0 25.9 0 h 0 min 0 1009.2 1013.0

1 Température minimale relevée entre 18:00 UTC la veille et 18:00 UTC le jour donné.

2 Température maximale relevée entre 06:00 UTC le jour donné et 06:00 UTC le lendemain.

3 Vent moyen de la journée basé sur les relevés horaires.

4 Ensoleillement en heures relevé entre 06:00 UTC la veille et 06:00 UTC le jour donné.

5 Précipitations totales tombées entre 06:00 UTC la jour donné et 06:00 UTC le lendemain.

Graphiques horaires